sensor_id;sensor_type;location;lat;lon;timestamp;pressure;altitude;pressure_sealevel;temperature;humidity
61573;BME280;47465;43.094;12.434;2024-03-02T00:01:15;97835.72;;;9.29;100.00
61573;BME280;47465;43.094;12.434;2024-03-02T00:03:42;97910.16;;;9.73;100.00
61573;BME280;47465;43.094;12.434;2024-03-02T00:06:09;97910.28;;;9.70;100.00
61573;BME280;47465;43.094;12.434;2024-03-02T00:08:37;97891.34;;;9.55;100.00
61573;BME280;47465;43.094;12.434;2024-03-02T00:11:03;97912.06;;;9.69;100.00
61573;BME280;47465;43.094;12.434;2024-03-02T00:13:30;97912.59;;;9.55;100.00
61573;BME280;47465;43.094;12.434;2024-03-02T00:16:00;97921.81;;;9.69;100.00
61573;BME280;47465;43.094;12.434;2024-03-02T00:18:31;97922.03;;;9.62;100.00
61573;BME280;47465;43.094;12.434;2024-03-02T00:20:58;97876.59;;;9.48;100.00
61573;BME280;47465;43.094;12.434;2024-03-02T00:23:26;97920.28;;;9.63;100.00
61573;BME280;47465;43.094;12.434;2024-03-02T00:25:55;97919.50;;;9.59;100.00
61573;BME280;47465;43.094;12.434;2024-03-02T00:28:23;97895.81;;;9.55;100.00
61573;BME280;47465;43.094;12.434;2024-03-02T00:30:56;97915.00;;;9.61;100.00
61573;BME280;47465;43.094;12.434;2024-03-02T00:33:27;97849.16;;;9.24;100.00
61573;BME280;47465;43.094;12.434;2024-03-02T00:35:54;97918.84;;;9.54;100.00
61573;BME280;47465;43.094;12.434;2024-03-02T00:38:22;97862.06;;;9.10;100.00
61573;BME280;47465;43.094;12.434;2024-03-02T00:40:48;97924.81;;;9.59;100.00
61573;BME280;47465;43.094;12.434;2024-03-02T00:46:11;97906.41;;;9.55;100.00
61573;BME280;47465;43.094;12.434;2024-03-02T00:48:37;97886.72;;;9.37;100.00
61573;BME280;47465;43.094;12.434;2024-03-02T00:51:04;97927.53;;;9.58;100.00
61573;BME280;47465;43.094;12.434;2024-03-02T00:53:33;97888.66;;;9.32;100.00
61573;BME280;47465;43.094;12.434;2024-03-02T00:56:00;97882.69;;;9.27;100.00
61573;BME280;47465;43.094;12.434;2024-03-02T00:58:27;97932.63;;;9.64;100.00
61573;BME280;47465;43.094;12.434;2024-03-02T01:00:53;97918.75;;;9.56;100.00
61573;BME280;47465;43.094;12.434;2024-03-02T01:03:26;97926.41;;;9.65;100.00
61573;BME280;47465;43.094;12.434;2024-03-02T01:05:54;97928.16;;;9.64;100.00
61573;BME280;47465;43.094;12.434;2024-03-02T01:08:20;97927.84;;;9.74;100.00
61573;BME280;47465;43.094;12.434;2024-03-02T01:10:46;97930.56;;;9.72;100.00
61573;BME280;47465;43.094;12.434;2024-03-02T01:13:13;97933.31;;;9.69;100.00
61573;BME280;47465;43.094;12.434;2024-03-02T01:15:51;97856.19;;;9.25;100.00
61573;BME280;47465;43.094;12.434;2024-03-02T01:18:21;97929.44;;;9.78;100.00
61573;BME280;47465;43.094;12.434;2024-03-02T01:20:52;97934.91;;;9.73;100.00
61573;BME280;47465;43.094;12.434;2024-03-02T01:23:18;97893.31;;;9.50;100.00
61573;BME280;47465;43.094;12.434;2024-03-02T01:25:47;97862.03;;;9.35;100.00
61573;BME280;47465;43.094;12.434;2024-03-02T01:28:14;97933.25;;;9.71;100.00
61573;BME280;47465;43.094;12.434;2024-03-02T01:30:40;97911.34;;;9.40;100.00
61573;BME280;47465;43.094;12.434;2024-03-02T01:33:09;97923.53;;;9.46;100.00
61573;BME280;47465;43.094;12.434;2024-03-02T01:35:35;97937.16;;;9.60;100.00
61573;BME280;47465;43.094;12.434;2024-03-02T01:38:05;97933.47;;;9.64;100.00
61573;BME280;47465;43.094;12.434;2024-03-02T01:40:32;97911.81;;;9.52;100.00
61573;BME280;47465;43.094;12.434;2024-03-02T01:43:03;97929.91;;;9.65;100.00
61573;BME280;47465;43.094;12.434;2024-03-02T01:45:29;97902.91;;;9.54;100.00
61573;BME280;47465;43.094;12.434;2024-03-02T01:47:55;97890.25;;;9.37;100.00
61573;BME280;47465;43.094;12.434;2024-03-02T01:50:26;97917.28;;;9.47;100.00
61573;BME280;47465;43.094;12.434;2024-03-02T01:52:52;97909.94;;;9.30;100.00
61573;BME280;47465;43.094;12.434;2024-03-02T01:55:20;97891.06;;;9.14;100.00
61573;BME280;47465;43.094;12.434;2024-03-02T01:57:47;97902.78;;;9.32;100.00
61573;BME280;47465;43.094;12.434;2024-03-02T02:00:15;97930.59;;;9.22;100.00
61573;BME280;47465;43.094;12.434;2024-03-02T02:02:42;97906.00;;;9.17;100.00
61573;BME280;47465;43.094;12.434;2024-03-02T02:05:08;97923.81;;;9.38;100.00
61573;BME280;47465;43.094;12.434;2024-03-02T02:07:35;97925.81;;;9.32;100.00
61573;BME280;47465;43.094;12.434;2024-03-02T02:10:02;97921.09;;;9.15;100.00
61573;BME280;47465;43.094;12.434;2024-03-02T02:12:36;97918.66;;;9.34;100.00
61573;BME280;47465;43.094;12.434;2024-03-02T02:15:03;97863.25;;;9.01;100.00
61573;BME280;47465;43.094;12.434;2024-03-02T02:17:32;97918.78;;;9.31;100.00
61573;BME280;47465;43.094;12.434;2024-03-02T02:20:00;97918.97;;;9.26;100.00
61573;BME280;47465;43.094;12.434;2024-03-02T02:22:28;97920.16;;;9.17;100.00
61573;BME280;47465;43.094;12.434;2024-03-02T02:24:54;97862.56;;;8.96;100.00
61573;BME280;47465;43.094;12.434;2024-03-02T02:27:20;97923.94;;;9.35;100.00
61573;BME280;47465;43.094;12.434;2024-03-02T02:29:46;97850.03;;;8.99;100.00
61573;BME280;47465;43.094;12.434;2024-03-02T02:32:15;97889.38;;;9.37;100.00
61573;BME280;47465;43.094;12.434;2024-03-02T02:34:43;97916.16;;;9.54;100.00
61573;BME280;47465;43.094;12.434;2024-03-02T02:37:10;97879.16;;;9.26;100.00
61573;BME280;47465;43.094;12.434;2024-03-02T02:39:40;97827.31;;;8.92;100.00
61573;BME280;47465;43.094;12.434;2024-03-02T02:42:06;97895.59;;;9.11;100.00
61573;BME280;47465;43.094;12.434;2024-03-02T02:44:35;97905.22;;;9.38;100.00
61573;BME280;47465;43.094;12.434;2024-03-02T02:47:02;97903.44;;;9.39;100.00
61573;BME280;47465;43.094;12.434;2024-03-02T02:49:28;97881.06;;;9.22;100.00
61573;BME280;47465;43.094;12.434;2024-03-02T02:51:55;97914.13;;;9.37;100.00
61573;BME280;47465;43.094;12.434;2024-03-02T02:54:21;97914.78;;;9.44;100.00
61573;BME280;47465;43.094;12.434;2024-03-02T02:56:51;97915.50;;;9.48;100.00
61573;BME280;47465;43.094;12.434;2024-03-02T02:59:17;97895.28;;;9.20;100.00
61573;BME280;47465;43.094;12.434;2024-03-02T03:01:45;97913.34;;;9.34;100.00
61573;BME280;47465;43.094;12.434;2024-03-02T03:04:12;97852.63;;;9.01;100.00
61573;BME280;47465;43.094;12.434;2024-03-02T03:06:38;97909.63;;;9.39;100.00
61573;BME280;47465;43.094;12.434;2024-03-02T03:09:04;97852.72;;;8.73;100.00
61573;BME280;47465;43.094;12.434;2024-03-02T03:11:34;97910.97;;;9.01;100.00
61573;BME280;47465;43.094;12.434;2024-03-02T03:14:06;97847.84;;;8.60;100.00
61573;BME280;47465;43.094;12.434;2024-03-02T03:16:32;97913.78;;;8.96;100.00
61573;BME280;47465;43.094;12.434;2024-03-02T03:18:58;97906.31;;;9.08;100.00
61573;BME280;47465;43.094;12.434;2024-03-02T03:21:24;97840.09;;;8.54;100.00
61573;BME280;47465;43.094;12.434;2024-03-02T03:23:52;97851.97;;;8.69;100.00
61573;BME280;47465;43.094;12.434;2024-03-02T03:26:18;97926.69;;;9.07;100.00
61573;BME280;47465;43.094;12.434;2024-03-02T03:28:44;97845.97;;;8.64;100.00
61573;BME280;47465;43.094;12.434;2024-03-02T03:31:12;97908.97;;;9.08;100.00
61573;BME280;47465;43.094;12.434;2024-03-02T03:33:40;97902.34;;;9.19;100.00
61573;BME280;47465;43.094;12.434;2024-03-02T03:36:06;97871.41;;;8.95;100.00
61573;BME280;47465;43.094;12.434;2024-03-02T03:38:33;97838.50;;;8.75;100.00
61573;BME280;47465;43.094;12.434;2024-03-02T03:40:58;97873.97;;;8.98;100.00
61573;BME280;47465;43.094;12.434;2024-03-02T03:43:24;97848.28;;;8.73;100.00
61573;BME280;47465;43.094;12.434;2024-03-02T03:45:53;97877.84;;;8.88;100.00
61573;BME280;47465;43.094;12.434;2024-03-02T03:48:20;97915.59;;;8.96;100.00
61573;BME280;47465;43.094;12.434;2024-03-02T03:50:46;97896.41;;;8.88;100.00
61573;BME280;47465;43.094;12.434;2024-03-02T03:53:12;97881.31;;;8.90;100.00
61573;BME280;47465;43.094;12.434;2024-03-02T03:55:42;97839.97;;;8.59;100.00
61573;BME280;47465;43.094;12.434;2024-03-02T03:58:11;97858.66;;;8.81;100.00
61573;BME280;47465;43.094;12.434;2024-03-02T04:00:37;97919.84;;;9.25;100.00
61573;BME280;47465;43.094;12.434;2024-03-02T04:03:06;97927.78;;;9.27;100.00
61573;BME280;47465;43.094;12.434;2024-03-02T04:05:34;97921.81;;;9.20;100.00
61573;BME280;47465;43.094;12.434;2024-03-02T04:08:06;97914.94;;;9.14;100.00
61573;BME280;47465;43.094;12.434;2024-03-02T04:10:32;97887.09;;;9.01;100.00
61573;BME280;47465;43.094;12.434;2024-03-02T04:12:59;97869.56;;;8.97;100.00
61573;BME280;47465;43.094;12.434;2024-03-02T04:15:25;97905.09;;;9.18;100.00
61573;BME280;47465;43.094;12.434;2024-03-02T04:17:54;97866.09;;;8.95;100.00
61573;BME280;47465;43.094;12.434;2024-03-02T04:20:23;97872.19;;;8.98;100.00
61573;BME280;47465;43.094;12.434;2024-03-02T04:22:50;97899.72;;;9.19;100.00
61573;BME280;47465;43.094;12.434;2024-03-02T04:25:16;97899.13;;;9.11;100.00
61573;BME280;47465;43.094;12.434;2024-03-02T04:27:42;97918.84;;;9.29;100.00
61573;BME280;47465;43.094;12.434;2024-03-02T04:30:09;97872.00;;;9.03;100.00
61573;BME280;47465;43.094;12.434;2024-03-02T04:32:35;97895.38;;;9.17;100.00
61573;BME280;47465;43.094;12.434;2024-03-02T04:35:02;97881.00;;;8.99;100.00
61573;BME280;47465;43.094;12.434;2024-03-02T04:37:28;97896.28;;;9.17;100.00
61573;BME280;47465;43.094;12.434;2024-03-02T04:39:59;97936.84;;;9.44;100.00
61573;BME280;47465;43.094;12.434;2024-03-02T04:42:27;97875.34;;;9.08;100.00
61573;BME280;47465;43.094;12.434;2024-03-02T04:44:54;97945.59;;;9.48;100.00
61573;BME280;47465;43.094;12.434;2024-03-02T04:47:24;97903.13;;;9.23;100.00
61573;BME280;47465;43.094;12.434;2024-03-02T04:49:53;97943.66;;;9.52;100.00
61573;BME280;47465;43.094;12.434;2024-03-02T04:52:21;97902.28;;;9.22;100.00
61573;BME280;47465;43.094;12.434;2024-03-02T04:54:51;97876.25;;;9.09;100.00
61573;BME280;47465;43.094;12.434;2024-03-02T04:57:52;97899.81;;;9.16;100.00
61573;BME280;47465;43.094;12.434;2024-03-02T05:00:20;97908.44;;;9.23;100.00
61573;BME280;47465;43.094;12.434;2024-03-02T05:02:46;97943.78;;;9.49;100.00
61573;BME280;47465;43.094;12.434;2024-03-02T05:05:12;97935.00;;;9.46;100.00
61573;BME280;47465;43.094;12.434;2024-03-02T05:07:41;97958.38;;;9.60;100.00
61573;BME280;47465;43.094;12.434;2024-03-02T05:10:08;97917.84;;;9.32;100.00
61573;BME280;47465;43.094;12.434;2024-03-02T05:12:34;97888.91;;;9.00;100.00
61573;BME280;47465;43.094;12.434;2024-03-02T05:15:20;97920.41;;;9.35;100.00
61573;BME280;47465;43.094;12.434;2024-03-02T05:17:49;97899.63;;;9.22;100.00
61573;BME280;47465;43.094;12.434;2024-03-02T05:20:16;97961.44;;;9.75;100.00
61573;BME280;47465;43.094;12.434;2024-03-02T05:22:42;97962.84;;;9.60;100.00
61573;BME280;47465;43.094;12.434;2024-03-02T05:25:11;97960.31;;;9.57;100.00
61573;BME280;47465;43.094;12.434;2024-03-02T05:27:46;97984.94;;;9.60;100.00
61573;BME280;47465;43.094;12.434;2024-03-02T05:30:12;97918.19;;;9.22;100.00
61573;BME280;47465;43.094;12.434;2024-03-02T05:32:40;97969.00;;;9.60;100.00
61573;BME280;47465;43.094;12.434;2024-03-02T05:35:09;97930.91;;;9.38;100.00
61573;BME280;47465;43.094;12.434;2024-03-02T05:37:37;97976.28;;;9.55;100.00
61573;BME280;47465;43.094;12.434;2024-03-02T05:40:03;97920.06;;;9.19;100.00
61573;BME280;47465;43.094;12.434;2024-03-02T05:42:31;97912.75;;;9.25;100.00
61573;BME280;47465;43.094;12.434;2024-03-02T05:44:57;97983.84;;;9.41;100.00
61573;BME280;47465;43.094;12.434;2024-03-02T05:47:32;97987.28;;;9.44;100.00
61573;BME280;47465;43.094;12.434;2024-03-02T05:50:03;97932.22;;;9.26;100.00
61573;BME280;47465;43.094;12.434;2024-03-02T05:52:29;97972.81;;;9.53;100.00
61573;BME280;47465;43.094;12.434;2024-03-02T05:54:56;97987.47;;;9.65;100.00
61573;BME280;47465;43.094;12.434;2024-03-02T05:57:22;97992.84;;;9.62;100.00
61573;BME280;47465;43.094;12.434;2024-03-02T06:00:08;98000.97;;;9.57;100.00
61573;BME280;47465;43.094;12.434;2024-03-02T06:02:34;97998.28;;;9.59;100.00
61573;BME280;47465;43.094;12.434;2024-03-02T06:05:06;97956.09;;;9.26;100.00
61573;BME280;47465;43.094;12.434;2024-03-02T06:07:32;98001.88;;;9.56;100.00
61573;BME280;47465;43.094;12.434;2024-03-02T06:09:59;97989.75;;;9.49;100.00
61573;BME280;47465;43.094;12.434;2024-03-02T06:12:28;98008.00;;;9.58;100.00
61573;BME280;47465;43.094;12.434;2024-03-02T06:14:59;98011.47;;;9.60;100.00
61573;BME280;47465;43.094;12.434;2024-03-02T06:17:25;97967.19;;;9.37;100.00
61573;BME280;47465;43.094;12.434;2024-03-02T06:19:54;97966.22;;;9.40;100.00
61573;BME280;47465;43.094;12.434;2024-03-02T06:22:22;97992.06;;;9.35;100.00
61573;BME280;47465;43.094;12.434;2024-03-02T06:24:51;97983.66;;;9.22;100.00
61573;BME280;47465;43.094;12.434;2024-03-02T06:27:22;98036.13;;;9.64;100.00
61573;BME280;47465;43.094;12.434;2024-03-02T06:29:51;98033.66;;;9.59;100.00
61573;BME280;47465;43.094;12.434;2024-03-02T06:32:18;98033.47;;;9.64;100.00
61573;BME280;47465;43.094;12.434;2024-03-02T06:34:44;98029.69;;;9.71;100.00
61573;BME280;47465;43.094;12.434;2024-03-02T06:37:15;97964.09;;;9.24;100.00
61573;BME280;47465;43.094;12.434;2024-03-02T06:39:49;98043.97;;;9.67;100.00
61573;BME280;47465;43.094;12.434;2024-03-02T06:42:20;98046.72;;;9.65;100.00
61573;BME280;47465;43.094;12.434;2024-03-02T06:44:46;98042.97;;;9.71;100.00
61573;BME280;47465;43.094;12.434;2024-03-02T06:47:14;98015.31;;;9.52;100.00
61573;BME280;47465;43.094;12.434;2024-03-02T06:49:47;98001.25;;;9.50;100.00
61573;BME280;47465;43.094;12.434;2024-03-02T06:52:13;97974.13;;;9.41;100.00
61573;BME280;47465;43.094;12.434;2024-03-02T06:54:43;98054.22;;;9.78;100.00
61573;BME280;47465;43.094;12.434;2024-03-02T06:57:12;98034.78;;;9.77;100.00
61573;BME280;47465;43.094;12.434;2024-03-02T06:59:38;97993.34;;;9.48;100.00
61573;BME280;47465;43.094;12.434;2024-03-02T07:02:04;98026.50;;;9.61;100.00
61573;BME280;47465;43.094;12.434;2024-03-02T07:04:31;98069.34;;;9.76;100.00
61573;BME280;47465;43.094;12.434;2024-03-02T07:07:01;98012.66;;;9.27;100.00
61573;BME280;47465;43.094;12.434;2024-03-02T07:09:33;98066.19;;;9.64;100.00
61573;BME280;47465;43.094;12.434;2024-03-02T07:12:00;98042.59;;;9.57;100.00
61573;BME280;47465;43.094;12.434;2024-03-02T07:14:26;98072.59;;;9.84;100.00
61573;BME280;47465;43.094;12.434;2024-03-02T07:17:12;98083.00;;;9.90;100.00
61573;BME280;47465;43.094;12.434;2024-03-02T07:19:38;98065.56;;;9.83;100.00
61573;BME280;47465;43.094;12.434;2024-03-02T07:22:06;98048.19;;;9.74;100.00
61573;BME280;47465;43.094;12.434;2024-03-02T07:24:41;98022.75;;;9.67;100.00
61573;BME280;47465;43.094;12.434;2024-03-02T07:27:13;98036.91;;;9.68;100.00
61573;BME280;47465;43.094;12.434;2024-03-02T07:29:40;98023.94;;;9.58;100.00
61573;BME280;47465;43.094;12.434;2024-03-02T07:32:06;98105.47;;;10.06;100.00
61573;BME280;47465;43.094;12.434;2024-03-02T07:34:35;98106.94;;;10.15;100.00
61573;BME280;47465;43.094;12.434;2024-03-02T07:37:01;98070.94;;;9.81;100.00
61573;BME280;47465;43.094;12.434;2024-03-02T07:39:27;98090.72;;;9.98;100.00
61573;BME280;47465;43.094;12.434;2024-03-02T07:41:54;98112.06;;;10.20;100.00
61573;BME280;47465;43.094;12.434;2024-03-02T07:44:24;98110.88;;;10.28;100.00
61573;BME280;47465;43.094;12.434;2024-03-02T07:47:08;98051.69;;;10.00;100.00
61573;BME280;47465;43.094;12.434;2024-03-02T07:49:39;98066.75;;;9.99;100.00
61573;BME280;47465;43.094;12.434;2024-03-02T07:52:06;98043.19;;;9.90;100.00
61573;BME280;47465;43.094;12.434;2024-03-02T07:54:33;98051.09;;;9.92;100.00
61573;BME280;47465;43.094;12.434;2024-03-02T07:56:59;98107.41;;;10.26;100.00
61573;BME280;47465;43.094;12.434;2024-03-02T07:59:27;98134.06;;;10.23;100.00
61573;BME280;47465;43.094;12.434;2024-03-02T08:01:56;98133.03;;;10.29;100.00
61573;BME280;47465;43.094;12.434;2024-03-02T08:04:25;98098.19;;;9.86;100.00
61573;BME280;47465;43.094;12.434;2024-03-02T08:06:54;98068.47;;;9.75;100.00
61573;BME280;47465;43.094;12.434;2024-03-02T08:09:20;98125.44;;;10.17;100.00
61573;BME280;47465;43.094;12.434;2024-03-02T08:11:46;98126.38;;;10.16;100.00
61573;BME280;47465;43.094;12.434;2024-03-02T08:14:16;98143.84;;;10.23;100.00
61573;BME280;47465;43.094;12.434;2024-03-02T08:16:45;98160.72;;;10.47;100.00
61573;BME280;47465;43.094;12.434;2024-03-02T08:19:13;98110.41;;;10.17;100.00
61573;BME280;47465;43.094;12.434;2024-03-02T08:21:39;98126.06;;;10.50;100.00
61573;BME280;47465;43.094;12.434;2024-03-02T08:24:06;98140.25;;;10.49;100.00
61573;BME280;47465;43.094;12.434;2024-03-02T08:26:32;98141.66;;;10.59;100.00
61573;BME280;47465;43.094;12.434;2024-03-02T08:28:59;98138.72;;;10.67;100.00
61573;BME280;47465;43.094;12.434;2024-03-02T08:31:30;98163.53;;;10.91;100.00
61573;BME280;47465;43.094;12.434;2024-03-02T08:33:58;98138.06;;;10.84;100.00
61573;BME280;47465;43.094;12.434;2024-03-02T08:36:26;98097.09;;;10.66;100.00
61573;BME280;47465;43.094;12.434;2024-03-02T08:38:52;98170.56;;;11.16;100.00
61573;BME280;47465;43.094;12.434;2024-03-02T08:41:21;98162.81;;;11.31;100.00
61573;BME280;47465;43.094;12.434;2024-03-02T08:43:49;98111.38;;;11.09;100.00
61573;BME280;47465;43.094;12.434;2024-03-02T08:46:19;98148.38;;;11.39;100.00
61573;BME280;47465;43.094;12.434;2024-03-02T08:48:45;98168.47;;;11.68;100.00
61573;BME280;47465;43.094;12.434;2024-03-02T08:51:13;98171.69;;;11.76;100.00
61573;BME280;47465;43.094;12.434;2024-03-02T08:53:41;98114.41;;;11.44;100.00
61573;BME280;47465;43.094;12.434;2024-03-02T08:56:10;98104.16;;;11.35;100.00
61573;BME280;47465;43.094;12.434;2024-03-02T08:58:53;98114.41;;;11.44;100.00
61573;BME280;47465;43.094;12.434;2024-03-02T09:01:19;98162.69;;;11.79;100.00
61573;BME280;47465;43.094;12.434;2024-03-02T09:03:45;98193.75;;;12.02;100.00
61573;BME280;47465;43.094;12.434;2024-03-02T09:06:16;98190.06;;;12.04;100.00
61573;BME280;47465;43.094;12.434;2024-03-02T09:08:50;98145.72;;;11.81;100.00
61573;BME280;47465;43.094;12.434;2024-03-02T09:11:17;98190.44;;;12.17;100.00
61573;BME280;47465;43.094;12.434;2024-03-02T09:13:45;98144.84;;;12.03;100.00
61573;BME280;47465;43.094;12.434;2024-03-02T09:16:11;98153.69;;;12.03;100.00
61573;BME280;47465;43.094;12.434;2024-03-02T09:18:43;98179.28;;;12.07;100.00
61573;BME280;47465;43.094;12.434;2024-03-02T09:21:09;98188.47;;;12.21;100.00
61573;BME280;47465;43.094;12.434;2024-03-02T09:23:37;98211.13;;;12.10;100.00
61573;BME280;47465;43.094;12.434;2024-03-02T09:26:05;98209.47;;;12.28;100.00
61573;BME280;47465;43.094;12.434;2024-03-02T09:28:31;98165.50;;;12.18;100.00
61573;BME280;47465;43.094;12.434;2024-03-02T09:31:00;98143.31;;;12.18;100.00
61573;BME280;47465;43.094;12.434;2024-03-02T09:33:26;98146.38;;;12.29;100.00
61573;BME280;47465;43.094;12.434;2024-03-02T09:35:57;98169.78;;;12.62;100.00
61573;BME280;47465;43.094;12.434;2024-03-02T09:38:34;98157.78;;;12.72;100.00
61573;BME280;47465;43.094;12.434;2024-03-02T09:41:07;98202.47;;;13.25;100.00
61573;BME280;47465;43.094;12.434;2024-03-02T09:43:36;98156.34;;;13.22;100.00
61573;BME280;47465;43.094;12.434;2024-03-02T09:46:03;98152.03;;;13.19;100.00
61573;BME280;47465;43.094;12.434;2024-03-02T09:48:32;98193.84;;;13.39;100.00
61573;BME280;47465;43.094;12.434;2024-03-02T09:51:01;98173.84;;;13.10;100.00
61573;BME280;47465;43.094;12.434;2024-03-02T09:53:32;98213.84;;;13.30;100.00
61573;BME280;47465;43.094;12.434;2024-03-02T09:56:02;98176.56;;;13.08;100.00
61573;BME280;47465;43.094;12.434;2024-03-02T09:58:30;98218.72;;;13.40;100.00
61573;BME280;47465;43.094;12.434;2024-03-02T10:00:56;98179.81;;;13.15;100.00
61573;BME280;47465;43.094;12.434;2024-03-02T10:03:23;98190.72;;;13.10;100.00
61573;BME280;47465;43.094;12.434;2024-03-02T10:05:50;98161.75;;;12.82;100.00
61573;BME280;47465;43.094;12.434;2024-03-02T10:08:21;98225.03;;;13.18;100.00
61573;BME280;47465;43.094;12.434;2024-03-02T10:10:52;98164.72;;;12.76;100.00
61573;BME280;47465;43.094;12.434;2024-03-02T10:13:23;98228.16;;;13.09;100.00
61573;BME280;47465;43.094;12.434;2024-03-02T10:15:54;98200.56;;;12.89;100.00
61573;BME280;47465;43.094;12.434;2024-03-02T10:18:27;98155.16;;;12.70;100.00
61573;BME280;47465;43.094;12.434;2024-03-02T10:20:55;98166.78;;;12.69;100.00
61573;BME280;47465;43.094;12.434;2024-03-02T10:23:31;98200.13;;;12.80;100.00
61573;BME280;47465;43.094;12.434;2024-03-02T10:26:16;98211.22;;;12.50;100.00
61573;BME280;47465;43.094;12.434;2024-03-02T10:28:45;98229.94;;;12.48;100.00
61573;BME280;47465;43.094;12.434;2024-03-02T10:31:21;98213.59;;;12.36;100.00
61573;BME280;47465;43.094;12.434;2024-03-02T10:33:53;98236.63;;;12.59;100.00
61573;BME280;47465;43.094;12.434;2024-03-02T10:36:22;98237.41;;;12.81;100.00
61573;BME280;47465;43.094;12.434;2024-03-02T10:38:51;98206.06;;;12.86;100.00
61573;BME280;47465;43.094;12.434;2024-03-02T10:41:23;98182.25;;;12.82;100.00
61573;BME280;47465;43.094;12.434;2024-03-02T10:43:51;98206.81;;;13.28;100.00
61573;BME280;47465;43.094;12.434;2024-03-02T10:46:22;98188.03;;;12.91;100.00
61573;BME280;47465;43.094;12.434;2024-03-02T10:48:49;98231.34;;;13.17;100.00
61573;BME280;47465;43.094;12.434;2024-03-02T10:51:19;98236.31;;;13.25;100.00
61573;BME280;47465;43.094;12.434;2024-03-02T10:53:45;98222.25;;;13.40;100.00
61573;BME280;47465;43.094;12.434;2024-03-02T10:56:17;98226.75;;;13.59;100.00
61573;BME280;47465;43.094;12.434;2024-03-02T10:58:50;98224.81;;;13.62;100.00
61573;BME280;47465;43.094;12.434;2024-03-02T11:01:17;98211.97;;;13.51;100.00
61573;BME280;47465;43.094;12.434;2024-03-02T11:03:45;98209.91;;;13.19;100.00
61573;BME280;47465;43.094;12.434;2024-03-02T11:06:15;98225.94;;;13.38;100.00
61573;BME280;47465;43.094;12.434;2024-03-02T11:08:43;98149.81;;;12.91;100.00
61573;BME280;47465;43.094;12.434;2024-03-02T11:11:15;98162.28;;;13.09;100.00
61573;BME280;47465;43.094;12.434;2024-03-02T11:13:49;98216.78;;;13.43;100.00
61573;BME280;47465;43.094;12.434;2024-03-02T11:16:22;98213.75;;;13.51;100.00
61573;BME280;47465;43.094;12.434;2024-03-02T11:18:57;98160.97;;;13.18;100.00
61573;BME280;47465;43.094;12.434;2024-03-02T11:21:25;98213.69;;;13.52;100.00
61573;BME280;47465;43.094;12.434;2024-03-02T11:23:51;98140.06;;;13.09;100.00
61573;BME280;47465;43.094;12.434;2024-03-02T11:26:17;98204.59;;;13.38;100.00
61573;BME280;47465;43.094;12.434;2024-03-02T11:28:44;98206.88;;;13.26;100.00
61573;BME280;47465;43.094;12.434;2024-03-02T11:31:11;98178.16;;;12.93;100.00
61573;BME280;47465;43.094;12.434;2024-03-02T11:33:37;98220.94;;;13.11;100.00
61573;BME280;47465;43.094;12.434;2024-03-02T11:36:06;98208.66;;;13.07;100.00
61573;BME280;47465;43.094;12.434;2024-03-02T11:38:32;98213.69;;;12.94;100.00
61573;BME280;47465;43.094;12.434;2024-03-02T11:41:03;98211.81;;;12.96;100.00
61573;BME280;47465;43.094;12.434;2024-03-02T11:43:33;98210.81;;;12.99;100.00
61573;BME280;47465;43.094;12.434;2024-03-02T11:46:04;98175.81;;;12.86;100.00
61573;BME280;47465;43.094;12.434;2024-03-02T11:48:33;98216.34;;;13.14;100.00
61573;BME280;47465;43.094;12.434;2024-03-02T11:51:01;98132.03;;;12.90;100.00
61573;BME280;47465;43.094;12.434;2024-03-02T11:53:29;98129.44;;;13.07;100.00
61573;BME280;47465;43.094;12.434;2024-03-02T11:55:58;98192.34;;;13.70;100.00
61573;BME280;47465;43.094;12.434;2024-03-02T11:58:24;98148.75;;;13.69;100.00
61573;BME280;47465;43.094;12.434;2024-03-02T12:00:55;98184.06;;;14.11;100.00
61573;BME280;47465;43.094;12.434;2024-03-02T12:03:22;98188.88;;;14.22;100.00
61573;BME280;47465;43.094;12.434;2024-03-02T12:05:52;98190.94;;;14.34;100.00
61573;BME280;47465;43.094;12.434;2024-03-02T12:08:19;98187.06;;;14.39;100.00
61573;BME280;47465;43.094;12.434;2024-03-02T12:10:58;98130.28;;;14.17;100.00
61573;BME280;47465;43.094;12.434;2024-03-02T12:13:24;98180.06;;;14.20;100.00
61573;BME280;47465;43.094;12.434;2024-03-02T12:15:53;98184.31;;;14.06;100.00
61573;BME280;47465;43.094;12.434;2024-03-02T12:18:23;98181.66;;;14.24;100.00
61573;BME280;47465;43.094;12.434;2024-03-02T12:20:52;98184.13;;;14.44;100.00
61573;BME280;47465;43.094;12.434;2024-03-02T12:23:18;98179.69;;;14.62;100.00
61573;BME280;47465;43.094;12.434;2024-03-02T12:25:48;98171.34;;;14.68;100.00
61573;BME280;47465;43.094;12.434;2024-03-02T12:28:16;98128.94;;;14.43;100.00
61573;BME280;47465;43.094;12.434;2024-03-02T12:30:46;98164.38;;;14.82;100.00
61573;BME280;47465;43.094;12.434;2024-03-02T12:33:16;98174.63;;;14.73;100.00
61573;BME280;47465;43.094;12.434;2024-03-02T12:35:42;98179.22;;;14.87;100.00
61573;BME280;47465;43.094;12.434;2024-03-02T12:38:13;98176.75;;;15.00;100.00
61573;BME280;47465;43.094;12.434;2024-03-02T12:40:40;98172.34;;;14.99;100.00
61573;BME280;47465;43.094;12.434;2024-03-02T12:43:06;98172.94;;;14.88;100.00
61573;BME280;47465;43.094;12.434;2024-03-02T12:45:36;98113.16;;;14.54;100.00
61573;BME280;47465;43.094;12.434;2024-03-02T12:48:05;98121.84;;;14.60;100.00
61573;BME280;47465;43.094;12.434;2024-03-02T12:50:31;98155.75;;;14.59;100.00
61573;BME280;47465;43.094;12.434;2024-03-02T12:53:13;98086.00;;;14.11;100.00
61573;BME280;47465;43.094;12.434;2024-03-02T12:55:44;98151.25;;;14.77;100.00